sensor_id;sensor_type;location;lat;lon;timestamp;P1;durP1;ratioP1;P2;durP2;ratioP2
20611;SDS011;10465;42.686;23.364;2023-03-03T00:01:01;4.55;;;3.58;;
20611;SDS011;10465;42.686;23.364;2023-03-03T00:03:27;5.80;;;4.50;;
20611;SDS011;10465;42.686;23.364;2023-03-03T00:05:52;3.97;;;3.28;;
20611;SDS011;10465;42.686;23.364;2023-03-03T00:08:18;7.20;;;3.70;;
20611;SDS011;10465;42.686;23.364;2023-03-03T00:10:44;5.80;;;4.15;;
20611;SDS011;10465;42.686;23.364;2023-03-03T00:13:23;6.65;;;4.60;;
20611;SDS011;10465;42.686;23.364;2023-03-03T00:15:51;5.25;;;4.03;;
20611;SDS011;10465;42.686;23.364;2023-03-03T00:21:01;5.07;;;4.20;;
20611;SDS011;10465;42.686;23.364;2023-03-03T00:23:39;6.95;;;5.05;;
20611;SDS011;10465;42.686;23.364;2023-03-03T00:26:24;5.70;;;4.32;;
20611;SDS011;10465;42.686;23.364;2023-03-03T00:28:55;6.40;;;5.03;;
20611;SDS011;10465;42.686;23.364;2023-03-03T00:31:34;6.80;;;5.13;;
20611;SDS011;10465;42.686;23.364;2023-03-03T00:34:42;7.03;;;5.28;;
20611;SDS011;10465;42.686;23.364;2023-03-03T00:36:51;7.05;;;4.97;;
20611;SDS011;10465;42.686;23.364;2023-03-03T00:41:44;6.85;;;4.90;;
20611;SDS011;10465;42.686;23.364;2023-03-03T00:47:01;7.65;;;5.53;;
20611;SDS011;10465;42.686;23.364;2023-03-03T00:49:34;7.85;;;5.95;;
20611;SDS011;10465;42.686;23.364;2023-03-03T00:52:00;7.93;;;5.25;;
20611;SDS011;10465;42.686;23.364;2023-03-03T00:54:26;9.75;;;6.40;;
20611;SDS011;10465;42.686;23.364;2023-03-03T00:56:52;7.88;;;5.80;;
20611;SDS011;10465;42.686;23.364;2023-03-03T00:59:17;8.15;;;5.80;;
20611;SDS011;10465;42.686;23.364;2023-03-03T01:01:43;7.35;;;5.63;;
20611;SDS011;10465;42.686;23.364;2023-03-03T01:04:08;8.73;;;5.47;;
20611;SDS011;10465;42.686;23.364;2023-03-03T01:06:33;8.80;;;5.90;;
20611;SDS011;10465;42.686;23.364;2023-03-03T01:08:59;8.13;;;5.90;;
20611;SDS011;10465;42.686;23.364;2023-03-03T01:11:25;9.65;;;5.05;;
20611;SDS011;10465;42.686;23.364;2023-03-03T01:13:52;8.93;;;5.90;;
20611;SDS011;10465;42.686;23.364;2023-03-03T01:16:18;8.50;;;6.13;;
20611;SDS011;10465;42.686;23.364;2023-03-03T01:18:43;8.25;;;6.05;;
20611;SDS011;10465;42.686;23.364;2023-03-03T01:21:09;8.98;;;5.50;;
20611;SDS011;10465;42.686;23.364;2023-03-03T01:23:35;8.80;;;6.10;;
20611;SDS011;10465;42.686;23.364;2023-03-03T01:26:01;7.65;;;5.55;;
20611;SDS011;10465;42.686;23.364;2023-03-03T01:28:28;7.53;;;5.45;;
20611;SDS011;10465;42.686;23.364;2023-03-03T01:30:53;6.55;;;5.03;;
20611;SDS011;10465;42.686;23.364;2023-03-03T01:33:19;9.23;;;5.80;;
20611;SDS011;10465;42.686;23.364;2023-03-03T01:35:45;9.95;;;5.70;;
20611;SDS011;10465;42.686;23.364;2023-03-03T01:38:12;7.78;;;5.82;;
20611;SDS011;10465;42.686;23.364;2023-03-03T01:40:38;8.93;;;5.95;;
20611;SDS011;10465;42.686;23.364;2023-03-03T01:43:04;8.70;;;5.72;;
20611;SDS011;10465;42.686;23.364;2023-03-03T01:45:30;7.28;;;5.10;;
20611;SDS011;10465;42.686;23.364;2023-03-03T01:48:10;8.30;;;5.35;;
20611;SDS011;10465;42.686;23.364;2023-03-03T01:50:41;6.53;;;4.80;;
20611;SDS011;10465;42.686;23.364;2023-03-03T01:53:27;7.13;;;5.15;;
20611;SDS011;10465;42.686;23.364;2023-03-03T01:55:58;6.13;;;4.68;;
20611;SDS011;10465;42.686;23.364;2023-03-03T01:58:28;6.30;;;4.53;;
20611;SDS011;10465;42.686;23.364;2023-03-03T02:01:03;7.38;;;4.63;;
20611;SDS011;10465;42.686;23.364;2023-03-03T02:03:31;5.75;;;4.72;;
20611;SDS011;10465;42.686;23.364;2023-03-03T02:05:59;6.40;;;4.40;;
20611;SDS011;10465;42.686;23.364;2023-03-03T02:08:32;6.72;;;4.47;;
20611;SDS011;10465;42.686;23.364;2023-03-03T02:11:23;5.78;;;4.03;;
20611;SDS011;10465;42.686;23.364;2023-03-03T02:13:50;6.68;;;3.80;;
20611;SDS011;10465;42.686;23.364;2023-03-03T02:16:15;5.40;;;4.10;;
20611;SDS011;10465;42.686;23.364;2023-03-03T02:18:41;4.90;;;3.30;;
20611;SDS011;10465;42.686;23.364;2023-03-03T02:23:49;4.63;;;3.40;;
20611;SDS011;10465;42.686;23.364;2023-03-03T02:26:26;6.13;;;3.63;;
20611;SDS011;10465;42.686;23.364;2023-03-03T02:28:53;4.50;;;3.55;;
20611;SDS011;10465;42.686;23.364;2023-03-03T02:31:20;4.97;;;3.88;;
20611;SDS011;10465;42.686;23.364;2023-03-03T02:33:48;5.15;;;4.15;;
20611;SDS011;10465;42.686;23.364;2023-03-03T02:36:25;5.47;;;4.07;;
20611;SDS011;10465;42.686;23.364;2023-03-03T02:41:56;5.75;;;4.32;;
20611;SDS011;10465;42.686;23.364;2023-03-03T02:44:33;6.47;;;4.68;;
20611;SDS011;10465;42.686;23.364;2023-03-03T02:46:59;6.57;;;4.68;;
20611;SDS011;10465;42.686;23.364;2023-03-03T02:49:25;6.43;;;4.72;;
20611;SDS011;10465;42.686;23.364;2023-03-03T02:51:52;10.18;;;4.95;;
20611;SDS011;10465;42.686;23.364;2023-03-03T02:54:19;5.43;;;4.45;;
20611;SDS011;10465;42.686;23.364;2023-03-03T02:56:47;6.53;;;4.82;;
20611;SDS011;10465;42.686;23.364;2023-03-03T02:59:13;7.78;;;5.15;;
20611;SDS011;10465;42.686;23.364;2023-03-03T03:01:39;7.13;;;5.03;;
20611;SDS011;10465;42.686;23.364;2023-03-03T03:06:43;7.30;;;5.60;;
20611;SDS011;10465;42.686;23.364;2023-03-03T03:09:10;7.90;;;5.97;;
20611;SDS011;10465;42.686;23.364;2023-03-03T03:11:36;8.13;;;5.85;;
20611;SDS011;10465;42.686;23.364;2023-03-03T03:14:02;9.05;;;5.85;;
20611;SDS011;10465;42.686;23.364;2023-03-03T03:16:29;7.82;;;5.53;;
20611;SDS011;10465;42.686;23.364;2023-03-03T03:18:56;8.30;;;5.55;;
20611;SDS011;10465;42.686;23.364;2023-03-03T03:21:21;9.27;;;6.22;;
20611;SDS011;10465;42.686;23.364;2023-03-03T03:23:47;7.90;;;5.88;;
20611;SDS011;10465;42.686;23.364;2023-03-03T03:26:12;9.93;;;6.50;;
20611;SDS011;10465;42.686;23.364;2023-03-03T03:28:38;7.75;;;5.63;;
20611;SDS011;10465;42.686;23.364;2023-03-03T03:31:04;9.20;;;6.35;;
20611;SDS011;10465;42.686;23.364;2023-03-03T03:33:30;8.52;;;6.28;;
20611;SDS011;10465;42.686;23.364;2023-03-03T03:35:57;9.40;;;6.40;;
20611;SDS011;10465;42.686;23.364;2023-03-03T03:38:23;10.38;;;6.85;;
20611;SDS011;10465;42.686;23.364;2023-03-03T03:40:51;10.48;;;6.85;;
20611;SDS011;10465;42.686;23.364;2023-03-03T03:43:16;11.02;;;7.38;;
20611;SDS011;10465;42.686;23.364;2023-03-03T03:45:42;10.40;;;6.93;;
20611;SDS011;10465;42.686;23.364;2023-03-03T03:48:07;12.20;;;7.70;;
20611;SDS011;10465;42.686;23.364;2023-03-03T03:50:33;11.15;;;7.45;;
20611;SDS011;10465;42.686;23.364;2023-03-03T03:52:58;10.52;;;7.53;;
20611;SDS011;10465;42.686;23.364;2023-03-03T03:55:24;12.30;;;8.07;;
20611;SDS011;10465;42.686;23.364;2023-03-03T03:57:49;13.60;;;8.05;;
20611;SDS011;10465;42.686;23.364;2023-03-03T04:00:15;11.57;;;8.30;;
20611;SDS011;10465;42.686;23.364;2023-03-03T04:02:41;12.32;;;8.07;;
20611;SDS011;10465;42.686;23.364;2023-03-03T04:05:06;12.50;;;8.20;;
20611;SDS011;10465;42.686;23.364;2023-03-03T04:07:32;13.45;;;8.40;;
20611;SDS011;10465;42.686;23.364;2023-03-03T04:09:58;13.93;;;9.20;;
20611;SDS011;10465;42.686;23.364;2023-03-03T04:12:24;13.30;;;9.20;;
20611;SDS011;10465;42.686;23.364;2023-03-03T04:14:49;14.75;;;9.85;;
20611;SDS011;10465;42.686;23.364;2023-03-03T04:17:15;14.70;;;9.50;;
20611;SDS011;10465;42.686;23.364;2023-03-03T04:19:42;14.15;;;9.80;;
20611;SDS011;10465;42.686;23.364;2023-03-03T04:22:08;13.00;;;9.45;;
20611;SDS011;10465;42.686;23.364;2023-03-03T04:24:33;15.43;;;9.52;;
20611;SDS011;10465;42.686;23.364;2023-03-03T04:27:00;16.05;;;10.95;;
20611;SDS011;10465;42.686;23.364;2023-03-03T04:29:25;16.08;;;10.13;;
20611;SDS011;10465;42.686;23.364;2023-03-03T04:31:51;15.68;;;10.00;;
20611;SDS011;10465;42.686;23.364;2023-03-03T04:34:16;15.00;;;9.18;;
20611;SDS011;10465;42.686;23.364;2023-03-03T04:36:42;14.07;;;9.45;;
20611;SDS011;10465;42.686;23.364;2023-03-03T04:39:07;15.30;;;9.93;;
20611;SDS011;10465;42.686;23.364;2023-03-03T04:41:32;15.43;;;10.23;;
20611;SDS011;10465;42.686;23.364;2023-03-03T04:43:58;14.27;;;9.98;;
20611;SDS011;10465;42.686;23.364;2023-03-03T04:46:23;17.05;;;10.55;;
20611;SDS011;10465;42.686;23.364;2023-03-03T04:48:49;16.67;;;9.95;;
20611;SDS011;10465;42.686;23.364;2023-03-03T04:51:15;16.52;;;10.57;;
20611;SDS011;10465;42.686;23.364;2023-03-03T04:53:40;16.67;;;10.85;;
20611;SDS011;10465;42.686;23.364;2023-03-03T04:56:06;16.17;;;10.60;;
20611;SDS011;10465;42.686;23.364;2023-03-03T04:58:31;16.88;;;10.80;;
20611;SDS011;10465;42.686;23.364;2023-03-03T05:00:57;19.30;;;10.88;;
20611;SDS011;10465;42.686;23.364;2023-03-03T05:03:22;17.48;;;10.70;;
20611;SDS011;10465;42.686;23.364;2023-03-03T05:05:49;19.55;;;11.38;;
20611;SDS011;10465;42.686;23.364;2023-03-03T05:08:14;16.58;;;10.82;;
20611;SDS011;10465;42.686;23.364;2023-03-03T05:10:40;19.38;;;11.90;;
20611;SDS011;10465;42.686;23.364;2023-03-03T05:13:06;17.15;;;11.20;;
20611;SDS011;10465;42.686;23.364;2023-03-03T05:15:32;19.05;;;11.60;;
20611;SDS011;10465;42.686;23.364;2023-03-03T05:17:57;17.45;;;11.65;;
20611;SDS011;10465;42.686;23.364;2023-03-03T05:20:23;18.73;;;11.90;;
20611;SDS011;10465;42.686;23.364;2023-03-03T05:22:49;20.67;;;11.30;;
20611;SDS011;10465;42.686;23.364;2023-03-03T05:25:15;17.98;;;11.52;;
20611;SDS011;10465;42.686;23.364;2023-03-03T05:27:41;21.70;;;12.57;;
20611;SDS011;10465;42.686;23.364;2023-03-03T05:30:08;18.13;;;11.43;;
20611;SDS011;10465;42.686;23.364;2023-03-03T05:32:34;17.67;;;10.65;;
20611;SDS011;10465;42.686;23.364;2023-03-03T05:35:00;19.65;;;11.70;;
20611;SDS011;10465;42.686;23.364;2023-03-03T05:37:25;19.17;;;11.55;;
20611;SDS011;10465;42.686;23.364;2023-03-03T05:39:50;18.70;;;10.88;;
20611;SDS011;10465;42.686;23.364;2023-03-03T05:42:16;16.67;;;11.10;;
20611;SDS011;10465;42.686;23.364;2023-03-03T05:44:41;17.20;;;10.57;;
20611;SDS011;10465;42.686;23.364;2023-03-03T05:47:07;18.08;;;10.77;;
20611;SDS011;10465;42.686;23.364;2023-03-03T05:49:33;19.52;;;11.85;;
20611;SDS011;10465;42.686;23.364;2023-03-03T05:51:59;17.05;;;11.40;;
20611;SDS011;10465;42.686;23.364;2023-03-03T05:54:24;18.77;;;10.77;;
20611;SDS011;10465;42.686;23.364;2023-03-03T05:56:50;15.25;;;10.30;;
20611;SDS011;10465;42.686;23.364;2023-03-03T05:59:16;16.75;;;10.52;;
20611;SDS011;10465;42.686;23.364;2023-03-03T06:01:41;17.05;;;9.57;;
20611;SDS011;10465;42.686;23.364;2023-03-03T06:04:07;15.45;;;9.77;;
20611;SDS011;10465;42.686;23.364;2023-03-03T06:06:32;13.85;;;9.00;;
20611;SDS011;10465;42.686;23.364;2023-03-03T06:08:58;16.63;;;9.07;;
20611;SDS011;10465;42.686;23.364;2023-03-03T06:11:24;13.93;;;9.45;;
20611;SDS011;10465;42.686;23.364;2023-03-03T06:13:49;14.55;;;9.07;;
20611;SDS011;10465;42.686;23.364;2023-03-03T06:16:15;14.77;;;9.13;;
20611;SDS011;10465;42.686;23.364;2023-03-03T06:18:40;13.93;;;9.15;;
20611;SDS011;10465;42.686;23.364;2023-03-03T06:21:06;15.45;;;9.40;;
20611;SDS011;10465;42.686;23.364;2023-03-03T06:23:31;16.70;;;10.10;;
20611;SDS011;10465;42.686;23.364;2023-03-03T06:25:57;16.38;;;10.35;;
20611;SDS011;10465;42.686;23.364;2023-03-03T06:28:22;16.10;;;10.02;;
20611;SDS011;10465;42.686;23.364;2023-03-03T06:30:51;14.27;;;9.52;;
20611;SDS011;10465;42.686;23.364;2023-03-03T06:33:18;15.27;;;9.73;;
20611;SDS011;10465;42.686;23.364;2023-03-03T06:35:43;16.90;;;10.13;;
20611;SDS011;10465;42.686;23.364;2023-03-03T06:38:13;15.00;;;9.90;;
20611;SDS011;10465;42.686;23.364;2023-03-03T06:40:38;15.50;;;9.75;;
20611;SDS011;10465;42.686;23.364;2023-03-03T06:43:03;16.75;;;10.10;;
20611;SDS011;10465;42.686;23.364;2023-03-03T06:45:29;15.07;;;9.50;;
20611;SDS011;10465;42.686;23.364;2023-03-03T06:47:54;14.73;;;9.75;;
20611;SDS011;10465;42.686;23.364;2023-03-03T06:50:20;14.90;;;9.80;;
20611;SDS011;10465;42.686;23.364;2023-03-03T06:52:45;14.07;;;8.85;;
20611;SDS011;10465;42.686;23.364;2023-03-03T06:55:12;12.98;;;8.80;;
20611;SDS011;10465;42.686;23.364;2023-03-03T06:57:45;14.95;;;9.75;;
20611;SDS011;10465;42.686;23.364;2023-03-03T07:02:41;15.82;;;10.25;;
20611;SDS011;10465;42.686;23.364;2023-03-03T07:05:14;14.95;;;9.90;;
20611;SDS011;10465;42.686;23.364;2023-03-03T07:07:41;15.50;;;9.95;;
20611;SDS011;10465;42.686;23.364;2023-03-03T07:10:28;12.32;;;9.57;;
20611;SDS011;10465;42.686;23.364;2023-03-03T07:12:56;14.65;;;9.70;;
20611;SDS011;10465;42.686;23.364;2023-03-03T07:15:33;15.73;;;10.20;;
20611;SDS011;10465;42.686;23.364;2023-03-03T07:18:00;18.30;;;12.00;;
20611;SDS011;10465;42.686;23.364;2023-03-03T07:20:29;13.50;;;9.73;;
20611;SDS011;10465;42.686;23.364;2023-03-03T07:22:59;14.23;;;9.52;;
20611;SDS011;10465;42.686;23.364;2023-03-03T07:25:31;12.05;;;8.60;;
20611;SDS011;10465;42.686;23.364;2023-03-03T07:30:51;15.50;;;9.93;;
20611;SDS011;10465;42.686;23.364;2023-03-03T07:33:34;14.18;;;10.05;;
20611;SDS011;10465;42.686;23.364;2023-03-03T07:36:21;16.33;;;10.65;;
20611;SDS011;10465;42.686;23.364;2023-03-03T07:38:56;14.90;;;10.18;;
20611;SDS011;10465;42.686;23.364;2023-03-03T07:41:24;13.77;;;9.73;;
20611;SDS011;10465;42.686;23.364;2023-03-03T07:43:50;15.05;;;10.02;;
20611;SDS011;10465;42.686;23.364;2023-03-03T07:49:00;14.45;;;9.20;;
20611;SDS011;10465;42.686;23.364;2023-03-03T07:51:40;13.57;;;8.88;;
20611;SDS011;10465;42.686;23.364;2023-03-03T07:56:58;14.65;;;9.43;;
20611;SDS011;10465;42.686;23.364;2023-03-03T07:59:30;13.95;;;9.38;;
20611;SDS011;10465;42.686;23.364;2023-03-03T08:02:00;13.77;;;9.52;;
20611;SDS011;10465;42.686;23.364;2023-03-03T08:06:57;15.63;;;10.23;;
20611;SDS011;10465;42.686;23.364;2023-03-03T08:09:34;15.02;;;9.73;;
20611;SDS011;10465;42.686;23.364;2023-03-03T08:14:33;14.38;;;9.25;;
20611;SDS011;10465;42.686;23.364;2023-03-03T08:17:00;12.45;;;9.07;;
20611;SDS011;10465;42.686;23.364;2023-03-03T08:19:26;16.27;;;10.23;;
20611;SDS011;10465;42.686;23.364;2023-03-03T08:22:01;18.02;;;10.65;;
20611;SDS011;10465;42.686;23.364;2023-03-03T08:24:36;16.83;;;10.60;;
20611;SDS011;10465;42.686;23.364;2023-03-03T08:27:01;16.33;;;10.05;;
20611;SDS011;10465;42.686;23.364;2023-03-03T08:29:27;19.90;;;12.18;;
20611;SDS011;10465;42.686;23.364;2023-03-03T08:31:52;13.80;;;8.75;;
20611;SDS011;10465;42.686;23.364;2023-03-03T08:34:20;16.98;;;9.35;;
20611;SDS011;10465;42.686;23.364;2023-03-03T08:36:50;13.95;;;9.57;;
20611;SDS011;10465;42.686;23.364;2023-03-03T08:39:15;15.88;;;9.63;;
20611;SDS011;10465;42.686;23.364;2023-03-03T08:41:41;17.42;;;11.02;;
20611;SDS011;10465;42.686;23.364;2023-03-03T08:44:09;18.10;;;11.73;;
20611;SDS011;10465;42.686;23.364;2023-03-03T08:46:35;18.02;;;10.93;;
20611;SDS011;10465;42.686;23.364;2023-03-03T08:49:01;19.48;;;10.93;;
20611;SDS011;10465;42.686;23.364;2023-03-03T08:51:27;14.68;;;9.05;;
20611;SDS011;10465;42.686;23.364;2023-03-03T08:53:53;15.75;;;9.63;;
20611;SDS011;10465;42.686;23.364;2023-03-03T08:56:18;14.43;;;9.05;;
20611;SDS011;10465;42.686;23.364;2023-03-03T08:58:43;14.75;;;9.52;;
20611;SDS011;10465;42.686;23.364;2023-03-03T09:01:12;12.50;;;8.52;;
20611;SDS011;10465;42.686;23.364;2023-03-03T09:03:40;13.38;;;8.68;;
20611;SDS011;10465;42.686;23.364;2023-03-03T09:06:06;12.13;;;8.07;;
20611;SDS011;10465;42.686;23.364;2023-03-03T09:08:31;9.48;;;6.97;;
20611;SDS011;10465;42.686;23.364;2023-03-03T09:10:57;11.13;;;7.75;;
20611;SDS011;10465;42.686;23.364;2023-03-03T09:13:22;12.55;;;7.47;;
20611;SDS011;10465;42.686;23.364;2023-03-03T09:15:48;11.45;;;7.13;;
20611;SDS011;10465;42.686;23.364;2023-03-03T09:18:18;9.38;;;6.72;;
20611;SDS011;10465;42.686;23.364;2023-03-03T09:25:48;9.75;;;6.88;;
20611;SDS011;10465;42.686;23.364;2023-03-03T09:28:25;12.07;;;7.32;;
20611;SDS011;10465;42.686;23.364;2023-03-03T09:30:53;9.20;;;6.40;;
20611;SDS011;10465;42.686;23.364;2023-03-03T09:38:49;13.85;;;8.20;;
20611;SDS011;10465;42.686;23.364;2023-03-03T09:57:23;12.63;;;7.78;;
20611;SDS011;10465;42.686;23.364;2023-03-03T10:00:03;11.05;;;7.65;;
20611;SDS011;10465;42.686;23.364;2023-03-03T10:02:50;11.50;;;7.43;;
20611;SDS011;10465;42.686;23.364;2023-03-03T10:19:38;13.38;;;8.68;;
20611;SDS011;10465;42.686;23.364;2023-03-03T10:22:17;12.07;;;8.57;;
20611;SDS011;10465;42.686;23.364;2023-03-03T10:27:53;13.07;;;9.23;;
20611;SDS011;10465;42.686;23.364;2023-03-03T10:33:21;13.23;;;9.20;;
20611;SDS011;10465;42.686;23.364;2023-03-03T10:36:06;13.23;;;9.55;;
20611;SDS011;10465;42.686;23.364;2023-03-03T10:38:38;14.02;;;9.55;;
20611;SDS011;10465;42.686;23.364;2023-03-03T10:46:37;14.45;;;10.13;;
20611;SDS011;10465;42.686;23.364;2023-03-03T10:52:21;14.02;;;9.50;;
20611;SDS011;10465;42.686;23.364;2023-03-03T11:00:40;17.08;;;11.40;;
20611;SDS011;10465;42.686;23.364;2023-03-03T11:06:16;14.50;;;10.48;;
20611;SDS011;10465;42.686;23.364;2023-03-03T11:09:10;16.42;;;11.10;;
20611;SDS011;10465;42.686;23.364;2023-03-03T11:20:41;16.83;;;10.23;;
20611;SDS011;10465;42.686;23.364;2023-03-03T11:29:42;15.10;;;11.10;;
20611;SDS011;10465;42.686;23.364;2023-03-03T11:34:51;14.45;;;10.85;;
20611;SDS011;10465;42.686;23.364;2023-03-03T11:37:42;17.33;;;11.75;;
20611;SDS011;10465;42.686;23.364;2023-03-03T11:40:18;19.02;;;12.38;;
20611;SDS011;10465;42.686;23.364;2023-03-03T11:45:18;19.65;;;13.75;;
20611;SDS011;10465;42.686;23.364;2023-03-03T11:50:25;18.20;;;13.25;;
20611;SDS011;10465;42.686;23.364;2023-03-03T11:56:45;19.38;;;13.55;;
20611;SDS011;10465;42.686;23.364;2023-03-03T12:02:01;22.67;;;15.23;;
20611;SDS011;10465;42.686;23.364;2023-03-03T12:12:56;22.00;;;15.55;;
20611;SDS011;10465;42.686;23.364;2023-03-03T12:19:00;20.88;;;15.07;;
20611;SDS011;10465;42.686;23.364;2023-03-03T12:26:58;19.92;;;14.77;;
20611;SDS011;10465;42.686;23.364;2023-03-03T12:32:28;25.00;;;16.83;;
20611;SDS011;10465;42.686;23.364;2023-03-03T12:37:47;22.23;;;14.45;;
20611;SDS011;10465;42.686;23.364;2023-03-03T12:40:19;19.50;;;13.57;;
20611;SDS011;10465;42.686;23.364;2023-03-03T12:45:54;17.63;;;12.75;;
20611;SDS011;10465;42.686;23.364;2023-03-03T12:51:05;18.35;;;13.70;;
20611;SDS011;10465;42.686;23.364;2023-03-03T12:56:54;21.30;;;14.15;;
20611;SDS011;10465;42.686;23.364;2023-03-03T13:00:02;19.30;;;13.27;;
20611;SDS011;10465;42.686;23.364;2023-03-03T13:11:00;15.35;;;11.45;;
20611;SDS011;10465;42.686;23.364;2023-03-03T13:13:17;13.93;;;10.40;;
20611;SDS011;10465;42.686;23.364;2023-03-03T13:18:27;13.75;;;9.90;;
20611;SDS011;10465;42.686;23.364;2023-03-03T13:23:45;13.75;;;9.52;;
20611;SDS011;10465;42.686;23.364;2023-03-03T13:31:28;11.38;;;8.93;;
20611;SDS011;10465;42.686;23.364;2023-03-03T13:33:59;10.98;;;8.35;;
20611;SDS011;10465;42.686;23.364;2023-03-03T13:36:44;11.82;;;9.50;;
20611;SDS011;10465;42.686;23.364;2023-03-03T13:39:19;12.80;;;9.98;;
20611;SDS011;10465;42.686;23.364;2023-03-03T13:44:37;12.68;;;8.60;;
20611;SDS011;10465;42.686;23.364;2023-03-03T13:47:11;10.43;;;7.18;;
20611;SDS011;10465;42.686;23.364;2023-03-03T13:52:08;10.15;;;7.65;;
20611;SDS011;10465;42.686;23.364;2023-03-03T13:54:42;10.32;;;8.07;;
20611;SDS011;10465;42.686;23.364;2023-03-03T14:05:51;12.75;;;9.82;;
20611;SDS011;10465;42.686;23.364;2023-03-03T14:11:14;14.50;;;11.50;;
20611;SDS011;10465;42.686;23.364;2023-03-03T14:24:25;17.23;;;12.30;;
20611;SDS011;10465;42.686;23.364;2023-03-03T14:26:52;17.25;;;12.32;;
20611;SDS011;10465;42.686;23.364;2023-03-03T14:31:55;15.55;;;12.13;;
20611;SDS011;10465;42.686;23.364;2023-03-03T14:36:49;16.95;;;11.77;;
20611;SDS011;10465;42.686;23.364;2023-03-03T14:39:33;16.17;;;13.02;;
20611;SDS011;10465;42.686;23.364;2023-03-03T14:42:05;12.60;;;10.35;;
20611;SDS011;10465;42.686;23.364;2023-03-03T14:44:48;14.13;;;10.55;;
20611;SDS011;10465;42.686;23.364;2023-03-03T14:47:25;15.52;;;10.73;;
20611;SDS011;10465;42.686;23.364;2023-03-03T14:49:52;15.20;;;10.93;;
20611;SDS011;10465;42.686;23.364;2023-03-03T14:54:52;12.60;;;9.95;;
20611;SDS011;10465;42.686;23.364;2023-03-03T15:03:33;12.48;;;9.15;;
20611;SDS011;10465;42.686;23.364;2023-03-03T15:05:56;10.30;;;7.55;;
20611;SDS011;10465;42.686;23.364;2023-03-03T15:08:34;11.10;;;7.88;;
20611;SDS011;10465;42.686;23.364;2023-03-03T15:11:17;9.63;;;7.85;;
20611;SDS011;10465;42.686;23.364;2023-03-03T15:14:11;10.65;;;8.68;;
20611;SDS011;10465;42.686;23.364;2023-03-03T15:16:40;11.80;;;8.77;;
20611;SDS011;10465;42.686;23.364;2023-03-03T15:30:32;13.93;;;10.25;;
20611;SDS011;10465;42.686;23.364;2023-03-03T15:35:55;13.30;;;10.40;;
20611;SDS011;10465;42.686;23.364;2023-03-03T15:38:30;12.65;;;9.55;;
20611;SDS011;10465;42.686;23.364;2023-03-03T15:52:00;15.15;;;10.70;;
20611;SDS011;10465;42.686;23.364;2023-03-03T15:54:33;15.07;;;10.82;;
20611;SDS011;10465;42.686;23.364;2023-03-03T16:02:45;20.92;;;13.32;;
20611;SDS011;10465;42.686;23.364;2023-03-03T16:11:06;16.25;;;11.88;;
20611;SDS011;10465;42.686;23.364;2023-03-03T16:13:54;17.10;;;12.38;;
20611;SDS011;10465;42.686;23.364;2023-03-03T16:17:05;18.58;;;13.27;;
20611;SDS011;10465;42.686;23.364;2023-03-03T16:19:37;18.92;;;12.93;;
20611;SDS011;10465;42.686;23.364;2023-03-03T16:22:28;15.07;;;11.52;;
20611;SDS011;10465;42.686;23.364;2023-03-03T16:27:54;13.20;;;10.82;;
20611;SDS011;10465;42.686;23.364;2023-03-03T16:33:13;12.75;;;9.90;;
20611;SDS011;10465;42.686;23.364;2023-03-03T16:38:49;12.45;;;10.02;;
20611;SDS011;10465;42.686;23.364;2023-03-03T16:41:26;14.27;;;10.35;;
20611;SDS011;10465;42.686;23.364;2023-03-03T16:44:11;13.13;;;10.32;;
20611;SDS011;10465;42.686;23.364;2023-03-03T16:46:40;13.98;;;11.23;;
20611;SDS011;10465;42.686;23.364;2023-03-03T16:52:13;13.43;;;9.68;;
20611;SDS011;10465;42.686;23.364;2023-03-03T16:54:49;14.13;;;10.05;;
20611;SDS011;10465;42.686;23.364;2023-03-03T17:00:22;15.35;;;11.45;;
20611;SDS011;10465;42.686;23.364;2023-03-03T17:05:50;10.95;;;7.82;;
20611;SDS011;10465;42.686;23.364;2023-03-03T17:14:15;10.18;;;7.80;;
20611;SDS011;10465;42.686;23.364;2023-03-03T17:16:57;11.23;;;8.55;;
20611;SDS011;10465;42.686;23.364;2023-03-03T17:27:33;10.30;;;7.80;;
20611;SDS011;10465;42.686;23.364;2023-03-03T17:30:15;10.00;;;7.82;;
20611;SDS011;10465;42.686;23.364;2023-03-03T17:36:00;9.52;;;7.55;;
20611;SDS011;10465;42.686;23.364;2023-03-03T17:38:30;10.65;;;7.60;;
20611;SDS011;10465;42.686;23.364;2023-03-03T17:43:51;11.65;;;8.48;;
20611;SDS011;10465;42.686;23.364;2023-03-03T17:47:04;9.63;;;7.05;;
20611;SDS011;10465;42.686;23.364;2023-03-03T18:08:56;13.52;;;10.25;;
20611;SDS011;10465;42.686;23.364;2023-03-03T18:14:04;15.48;;;10.30;;
20611;SDS011;10465;42.686;23.364;2023-03-03T18:17:16;13.45;;;10.27;;
20611;SDS011;10465;42.686;23.364;2023-03-03T18:19:44;15.52;;;11.70;;
20611;SDS011;10465;42.686;23.364;2023-03-03T18:22:16;17.17;;;13.40;;
20611;SDS011;10465;42.686;23.364;2023-03-03T18:32:59;17.65;;;13.10;;
20611;SDS011;10465;42.686;23.364;2023-03-03T18:35:48;15.57;;;11.45;;
20611;SDS011;10465;42.686;23.364;2023-03-03T18:46:04;17.73;;;12.95;;
20611;SDS011;10465;42.686;23.364;2023-03-03T18:49:06;16.58;;;11.55;;
20611;SDS011;10465;42.686;23.364;2023-03-03T18:59:07;15.57;;;11.23;;
20611;SDS011;10465;42.686;23.364;2023-03-03T19:01:43;16.70;;;11.35;;
20611;SDS011;10465;42.686;23.364;2023-03-03T19:04:19;17.75;;;11.07;;
20611;SDS011;10465;42.686;23.364;2023-03-03T19:09:16;16.75;;;11.52;;
20611;SDS011;10465;42.686;23.364;2023-03-03T19:12:03;14.52;;;9.60;;
20611;SDS011;10465;42.686;23.364;2023-03-03T19:14:35;11.50;;;8.55;;
20611;SDS011;10465;42.686;23.364;2023-03-03T19:22:26;12.57;;;8.18;;
20611;SDS011;10465;42.686;23.364;2023-03-03T19:33:03;13.43;;;8.13;;
20611;SDS011;10465;42.686;23.364;2023-03-03T19:36:24;11.55;;;8.68;;
20611;SDS011;10465;42.686;23.364;2023-03-03T19:57:16;22.77;;;14.45;;
20611;SDS011;10465;42.686;23.364;2023-03-03T20:00:04;19.15;;;13.48;;
20611;SDS011;10465;42.686;23.364;2023-03-03T20:02:47;14.63;;;10.95;;
20611;SDS011;10465;42.686;23.364;2023-03-03T20:05:42;15.90;;;10.18;;
20611;SDS011;10465;42.686;23.364;2023-03-03T20:11:07;12.43;;;8.82;;
20611;SDS011;10465;42.686;23.364;2023-03-03T20:14:01;12.88;;;8.48;;
20611;SDS011;10465;42.686;23.364;2023-03-03T20:16:36;11.70;;;8.38;;
20611;SDS011;10465;42.686;23.364;2023-03-03T20:25:11;9.77;;;7.05;;
20611;SDS011;10465;42.686;23.364;2023-03-03T20:28:10;10.05;;;7.07;;
20611;SDS011;10465;42.686;23.364;2023-03-03T20:39:10;7.63;;;6.03;;
20611;SDS011;10465;42.686;23.364;2023-03-03T20:41:59;8.23;;;6.28;;
20611;SDS011;10465;42.686;23.364;2023-03-03T20:47:57;10.32;;;6.00;;
20611;SDS011;10465;42.686;23.364;2023-03-03T20:56:21;7.93;;;5.85;;
20611;SDS011;10465;42.686;23.364;2023-03-03T20:58:58;9.02;;;6.45;;
20611;SDS011;10465;42.686;23.364;2023-03-03T21:04:24;11.27;;;7.15;;
20611;SDS011;10465;42.686;23.364;2023-03-03T21:06:52;12.75;;;9.45;;
20611;SDS011;10465;42.686;23.364;2023-03-03T21:09:23;10.75;;;8.35;;
20611;SDS011;10465;42.686;23.364;2023-03-03T21:11:52;10.60;;;7.95;;
20611;SDS011;10465;42.686;23.364;2023-03-03T21:14:19;10.52;;;7.85;;
20611;SDS011;10465;42.686;23.364;2023-03-03T21:16:47;12.38;;;8.02;;
20611;SDS011;10465;42.686;23.364;2023-03-03T21:19:24;8.88;;;6.43;;
20611;SDS011;10465;42.686;23.364;2023-03-03T21:21:54;8.82;;;6.95;;
20611;SDS011;10465;42.686;23.364;2023-03-03T21:24:20;10.05;;;6.97;;